createdAt,value
2023-04-05T00:00:57.102Z,101176.59
2023-04-05T00:03:24.414Z,101175.97
2023-04-05T00:05:51.135Z,101169.06
2023-04-05T00:08:24.120Z,101158.97
2023-04-05T00:10:50.876Z,101163.09
2023-04-05T00:13:17.325Z,101159.75
2023-04-05T00:15:43.789Z,101160.59
2023-04-05T00:18:22.172Z,101150.97
2023-04-05T00:20:49.106Z,101157.62
2023-04-05T00:23:16.937Z,101158.84
2023-04-05T00:25:43.356Z,101161.94
2023-04-05T00:28:09.867Z,101156.69
2023-04-05T00:30:36.486Z,101152.50
2023-04-05T00:33:03.149Z,101150.03
2023-04-05T00:35:29.651Z,101151.78
2023-04-05T00:37:56.222Z,101157.00
2023-04-05T00:40:22.635Z,101146.72
2023-04-05T00:42:49.050Z,101146.22
2023-04-05T00:45:15.680Z,101145.69
2023-04-05T00:47:42.166Z,101144.91
2023-04-05T00:50:08.864Z,101143.53
2023-04-05T00:52:35.456Z,101146.88
2023-04-05T00:55:01.930Z,101139.28
2023-04-05T00:57:30.371Z,101139.63
2023-04-05T00:59:56.812Z,101145.69
2023-04-05T01:02:24.810Z,101137.19
2023-04-05T01:04:51.384Z,101142.03
2023-04-05T01:07:19.983Z,101134.66
2023-04-05T01:09:46.421Z,101140.09
2023-04-05T01:12:12.852Z,101129.53
2023-04-05T01:14:39.281Z,101139.53
2023-04-05T01:17:05.698Z,101127.97
2023-04-05T01:19:35.316Z,101129.06
2023-04-05T01:22:13.861Z,101130.97
2023-04-05T01:24:40.365Z,101127.06
2023-04-05T01:27:06.865Z,101128.97
2023-04-05T01:29:33.297Z,101121.94
2023-04-05T01:31:59.740Z,101126.66
2023-04-05T01:34:26.252Z,101117.50
2023-04-05T01:36:53.156Z,101119.09
2023-04-05T01:39:19.642Z,101119.72
2023-04-05T01:41:46.157Z,101118.37
2023-04-05T01:44:12.585Z,101112.34
2023-04-05T01:46:39.114Z,101111.81
2023-04-05T01:49:05.625Z,101106.59
2023-04-05T01:51:33.344Z,101109.00
2023-04-05T01:53:59.955Z,101106.19
2023-04-05T01:56:27.618Z,101103.50
2023-04-05T01:58:54.102Z,101106.56
2023-04-05T02:01:20.586Z,101101.87
2023-04-05T02:03:47.188Z,101101.78
2023-04-05T02:06:13.669Z,101097.63
2023-04-05T02:08:40.086Z,101097.94
2023-04-05T02:11:06.536Z,101099.78
2023-04-05T02:13:32.989Z,101104.50
2023-04-05T02:15:59.471Z,101100.72
2023-04-05T02:18:31.536Z,101099.94
2023-04-05T02:21:00.190Z,101104.84
2023-04-05T02:23:28.107Z,101098.78
2023-04-05T02:25:54.557Z,101105.09
2023-04-05T02:28:20.987Z,101103.72
2023-04-05T02:30:47.414Z,101088.59
2023-04-05T02:33:13.843Z,101098.28
2023-04-05T02:35:40.297Z,101094.41
2023-04-05T02:38:07.323Z,101098.28
2023-04-05T02:40:33.821Z,101097.16
2023-04-05T02:43:00.303Z,101097.47
2023-04-05T02:45:28.068Z,101091.69
2023-04-05T02:47:55.010Z,101088.91
2023-04-05T02:50:21.542Z,101094.94
2023-04-05T02:52:48.336Z,101088.88
2023-04-05T02:55:14.767Z,101095.75
2023-04-05T02:57:41.373Z,101082.81
2023-04-05T03:00:08.838Z,101082.56
2023-04-05T03:02:35.331Z,101085.84
2023-04-05T03:05:02.619Z,101085.59
2023-04-05T03:07:29.730Z,101078.06
2023-04-05T03:09:57.003Z,101073.97
2023-04-05T03:12:23.425Z,101083.09
2023-04-05T03:14:49.876Z,101080.03
2023-04-05T03:17:16.374Z,101073.72
2023-04-05T03:19:42.869Z,101076.78
2023-04-05T03:22:09.316Z,101075.34
2023-04-05T03:24:35.784Z,101074.22
2023-04-05T03:27:02.625Z,101080.28
2023-04-05T03:29:29.055Z,101072.03
2023-04-05T03:31:55.763Z,101069.00
2023-04-05T03:34:22.500Z,101069.59
2023-04-05T03:36:49.941Z,101069.31
2023-04-05T03:39:16.373Z,101075.62
2023-04-05T03:41:42.820Z,101072.31
2023-04-05T03:44:09.241Z,101063.81
2023-04-05T03:46:38.160Z,101075.91
2023-04-05T03:49:04.731Z,101067.87
2023-04-05T03:51:31.392Z,101065.44
2023-04-05T03:53:57.808Z,101072.28
2023-04-05T03:56:24.240Z,101074.13
2023-04-05T03:58:50.726Z,101071.69
2023-04-05T04:01:17.205Z,101065.56
2023-04-05T04:03:43.643Z,101069.47
2023-04-05T04:06:10.160Z,101068.44
2023-04-05T04:08:36.704Z,101074.19
2023-04-05T04:11:03.191Z,101074.19
2023-04-05T04:13:29.635Z,101072.50
2023-04-05T04:15:56.211Z,101078.00
2023-04-05T04:18:22.714Z,101074.47
2023-04-05T04:20:49.395Z,101071.75
2023-04-05T04:23:16.438Z,101075.09
2023-04-05T04:25:46.365Z,101075.91
2023-04-05T04:28:12.984Z,101071.75
2023-04-05T04:30:39.445Z,101064.88
2023-04-05T04:33:09.076Z,101070.09
2023-04-05T04:35:39.305Z,101082.78
2023-04-05T04:38:06.068Z,101080.63
2023-04-05T04:40:39.134Z,101080.03
2023-04-05T04:43:05.657Z,101069.84
2023-04-05T04:45:35.112Z,101070.41
2023-04-05T04:48:01.749Z,101070.94
2023-04-05T04:50:28.275Z,101073.41
2023-04-05T04:52:54.734Z,101074.28
2023-04-05T04:55:25.436Z,101071.53
2023-04-05T04:57:51.887Z,101075.38
2023-04-05T05:00:18.404Z,101074.00
2023-04-05T05:02:44.849Z,101067.34
2023-04-05T05:05:11.539Z,101070.06
2023-04-05T05:07:38.003Z,101066.72
2023-04-05T05:10:04.477Z,101067.78
2023-04-05T05:12:31.802Z,101072.47
2023-04-05T05:14:58.340Z,101069.47
2023-04-05T05:17:24.953Z,101081.59
2023-04-05T05:19:52.260Z,101081.06
2023-04-05T05:22:19.428Z,101074.13
2023-04-05T05:24:46.792Z,101073.31
2023-04-05T05:27:13.227Z,101075.41
2023-04-05T05:29:39.712Z,101066.38
2023-04-05T05:32:06.670Z,101072.53
2023-04-05T05:34:33.611Z,101075.31
2023-04-05T05:37:00.113Z,101069.50
2023-04-05T05:39:26.552Z,101077.75
2023-04-05T05:41:53.156Z,101067.06
2023-04-05T05:44:19.588Z,101068.78
2023-04-05T05:46:46.318Z,101076.00
2023-04-05T05:49:12.870Z,101073.81
2023-04-05T05:51:39.348Z,101068.63
2023-04-05T05:54:05.916Z,101069.72
2023-04-05T05:56:32.343Z,101065.03
2023-04-05T05:58:59.717Z,101067.25
2023-04-05T06:01:28.494Z,101062.81
2023-04-05T06:03:55.349Z,101058.66
2023-04-05T06:06:22.312Z,101065.56
2023-04-05T06:08:49.702Z,101058.38
2023-04-05T06:11:16.160Z,101062.78
2023-04-05T06:13:42.604Z,101060.84
2023-04-05T06:16:09.082Z,101058.03
2023-04-05T06:18:35.553Z,101059.28
2023-04-05T06:21:01.968Z,101070.13
2023-04-05T06:23:28.374Z,101076.28
2023-04-05T06:25:56.808Z,101070.50
2023-04-05T06:28:23.235Z,101075.97
2023-04-05T06:30:49.730Z,101072.91
2023-04-05T06:33:16.139Z,101065.66
2023-04-05T06:35:42.591Z,101065.16
2023-04-05T06:38:09.646Z,101065.75
2023-04-05T06:40:36.352Z,101061.88
2023-04-05T06:43:02.763Z,101057.59
2023-04-05T06:45:29.190Z,101057.41
2023-04-05T06:47:55.615Z,101054.06
2023-04-05T06:50:22.106Z,101059.00
2023-04-05T06:52:48.572Z,101062.66
2023-04-05T06:55:15.001Z,101057.41
2023-04-05T06:57:41.544Z,101060.59
2023-04-05T07:00:12.042Z,101055.09
2023-04-05T07:02:38.571Z,101064.28
2023-04-05T07:05:06.099Z,101056.31
2023-04-05T07:07:33.567Z,101061.16
2023-04-05T07:10:00.020Z,101061.69
2023-04-05T07:12:26.454Z,101061.75
2023-04-05T07:14:52.870Z,101050.97
2023-04-05T07:17:19.291Z,101045.28
2023-04-05T07:19:46.458Z,101048.03
2023-04-05T07:22:12.926Z,101050.94
2023-04-05T07:24:39.366Z,101046.81
2023-04-05T07:27:05.804Z,101042.47
2023-04-05T07:29:32.250Z,101041.53
2023-04-05T07:31:58.894Z,101047.34
2023-04-05T07:34:25.646Z,101045.06
2023-04-05T07:36:52.265Z,101042.44
2023-04-05T07:39:18.802Z,101045.53
2023-04-05T07:41:45.214Z,101044.84
2023-04-05T07:44:11.647Z,101043.81
2023-04-05T07:46:39.473Z,101048.25
2023-04-05T07:49:06.027Z,101047.44
2023-04-05T07:51:36.360Z,101043.75
2023-04-05T07:54:03.342Z,101050.66
2023-04-05T07:56:30.897Z,101038.19
2023-04-05T07:58:57.377Z,101038.81
2023-04-05T08:01:27.958Z,101042.84
2023-04-05T08:03:54.459Z,101043.91
2023-04-05T08:06:20.934Z,101042.53
2023-04-05T08:08:47.389Z,101041.31
2023-04-05T08:11:13.814Z,101032.38
2023-04-05T08:13:44.002Z,101037.88
2023-04-05T08:16:10.677Z,101028.41
2023-04-05T08:18:37.195Z,101028.09
2023-04-05T08:21:03.637Z,101026.75
2023-04-05T08:23:30.233Z,101032.91
2023-04-05T08:25:56.910Z,101019.75
2023-04-05T08:28:23.357Z,101022.19
2023-04-05T08:30:50.019Z,101028.16
2023-04-05T08:33:16.519Z,101023.94
2023-04-05T08:35:43.376Z,101021.22
2023-04-05T08:38:09.877Z,101025.62
2023-04-05T08:40:36.292Z,101022.19
2023-04-05T08:43:02.774Z,101023.16
2023-04-05T08:45:29.536Z,101016.00
2023-04-05T08:47:56.182Z,101006.16
2023-04-05T08:50:22.656Z,101012.56
2023-04-05T08:52:50.193Z,101015.66
2023-04-05T08:55:16.663Z,101021.91
2023-04-05T08:57:43.078Z,101012.28
2023-04-05T09:00:09.517Z,101010.47
2023-04-05T09:02:36.051Z,101022.31
2023-04-05T09:05:02.557Z,101018.78
2023-04-05T09:07:28.987Z,101007.75
2023-04-05T09:09:55.783Z,101007.22
2023-04-05T09:12:25.941Z,101014.03
2023-04-05T09:14:52.369Z,101023.75
2023-04-05T09:17:19.469Z,101018.78
2023-04-05T09:19:45.941Z,101020.09
2023-04-05T09:22:12.438Z,101014.03
2023-04-05T09:24:42.217Z,101021.62
2023-04-05T09:27:08.919Z,101023.75
2023-04-05T09:29:35.700Z,101010.06
2023-04-05T09:32:03.083Z,101018.19
2023-04-05T09:34:29.505Z,101017.22
2023-04-05T09:36:55.936Z,101014.50
2023-04-05T09:39:23.487Z,101011.28
2023-04-05T09:41:49.881Z,101018.72
2023-04-05T09:44:16.314Z,101016.34
2023-04-05T09:46:44.003Z,101011.88
2023-04-05T09:49:10.585Z,101008.22
2023-04-05T09:51:37.047Z,101014.41
2023-04-05T09:54:03.557Z,101011.25
2023-04-05T09:56:29.987Z,101002.16
2023-04-05T09:58:56.614Z,100995.78
2023-04-05T10:01:23.439Z,100995.66
2023-04-05T10:03:50.211Z,100995.34
2023-04-05T10:06:17.392Z,100995.28
2023-04-05T10:08:43.851Z,100999.41
2023-04-05T10:11:10.919Z,100997.62
2023-04-05T10:13:37.333Z,101000.34
2023-04-05T10:16:03.790Z,100994.97
2023-04-05T10:18:30.429Z,101002.56
2023-04-05T10:20:56.911Z,100998.34
2023-04-05T10:23:23.368Z,100988.56
2023-04-05T10:25:52.290Z,100986.91
2023-04-05T10:28:19.562Z,100992.81
2023-04-05T10:30:46.238Z,100988.66
2023-04-05T10:33:12.717Z,100988.44
2023-04-05T10:35:39.318Z,100983.53
2023-04-05T10:38:05.939Z,100979.41
2023-04-05T10:40:32.360Z,100976.84
2023-04-05T10:42:58.903Z,100976.31
2023-04-05T10:45:25.349Z,100976.34
2023-04-05T10:47:51.880Z,100972.75
2023-04-05T10:50:18.378Z,100965.16
2023-04-05T10:52:44.932Z,100966.84
2023-04-05T10:55:11.677Z,100967.44
2023-04-05T10:57:38.090Z,100962.69
2023-04-05T11:00:04.532Z,100964.28
2023-04-05T11:02:31.034Z,100970.22
2023-04-05T11:04:57.803Z,100967.19
2023-04-05T11:07:24.235Z,100976.41
2023-04-05T11:09:51.044Z,100973.22
2023-04-05T11:12:17.460Z,100963.03
2023-04-05T11:14:44.743Z,100972.19
2023-04-05T11:17:11.290Z,100961.56
2023-04-05T11:19:37.834Z,100965.47
2023-04-05T11:22:04.295Z,100976.41
2023-04-05T11:24:31.841Z,100962.31
2023-04-05T11:26:59.594Z,100960.75
2023-04-05T11:29:26.113Z,100962.13
2023-04-05T11:31:52.537Z,100961.88
2023-04-05T11:34:18.952Z,100957.78
2023-04-05T11:36:48.436Z,100954.50
2023-04-05T11:39:14.899Z,100955.03
2023-04-05T11:41:41.328Z,100948.09
2023-04-05T11:44:07.777Z,100952.94
2023-04-05T11:46:34.321Z,100948.44
2023-04-05T11:49:00.901Z,100955.59
2023-04-05T11:51:29.304Z,100952.00
2023-04-05T11:53:55.776Z,100947.81
2023-04-05T11:56:22.498Z,100939.06
2023-04-05T11:58:49.068Z,100950.38
2023-04-05T12:01:15.794Z,100947.91
2023-04-05T12:03:42.276Z,100937.63
2023-04-05T12:06:08.829Z,100944.00
2023-04-05T12:08:35.244Z,100940.12
2023-04-05T12:11:01.672Z,100948.59
2023-04-05T12:13:28.778Z,100942.88
2023-04-05T12:15:55.266Z,100943.28
2023-04-05T12:18:21.721Z,100938.97
2023-04-05T12:20:48.152Z,100930.97
2023-04-05T12:23:14.634Z,100945.97
2023-04-05T12:25:43.079Z,100935.09
2023-04-05T12:28:09.925Z,100932.41
2023-04-05T12:30:39.454Z,100927.28
2023-04-05T12:33:07.968Z,100927.06
2023-04-05T12:35:35.394Z,100921.25
2023-04-05T12:38:02.321Z,100925.00
2023-04-05T12:40:31.079Z,100920.97
2023-04-05T12:42:57.562Z,100909.13
2023-04-05T12:45:24.085Z,100915.00
2023-04-05T12:47:50.987Z,100912.00
2023-04-05T12:50:17.544Z,100911.84
2023-04-05T12:52:44.043Z,100911.00
2023-04-05T12:55:10.521Z,100915.13
2023-04-05T12:57:36.930Z,100907.06
2023-04-05T13:00:03.376Z,100907.78
2023-04-05T13:02:29.928Z,100900.25
2023-04-05T13:04:56.592Z,100907.59
2023-04-05T13:07:23.018Z,100912.13
2023-04-05T13:09:49.453Z,100918.84
2023-04-05T13:12:15.866Z,100917.41
2023-04-05T13:14:42.323Z,100904.87
2023-04-05T13:17:08.969Z,100903.62
2023-04-05T13:19:35.578Z,100898.63
2023-04-05T13:22:02.061Z,100895.13
2023-04-05T13:24:28.506Z,100886.12
2023-04-05T13:26:54.929Z,100878.81
2023-04-05T13:29:21.365Z,100881.22
2023-04-05T13:31:47.796Z,100878.63
2023-04-05T13:34:14.232Z,100885.78
2023-04-05T13:36:40.818Z,100884.31
2023-04-05T13:39:07.306Z,100880.06
2023-04-05T13:41:33.714Z,100892.72
2023-04-05T13:44:01.963Z,100889.25
2023-04-05T13:46:29.625Z,100880.78
2023-04-05T13:48:56.214Z,100885.53
2023-04-05T13:51:23.185Z,100884.44
2023-04-05T13:53:49.621Z,100890.87
2023-04-05T13:56:16.086Z,100887.81
2023-04-05T13:58:42.556Z,100879.12
2023-04-05T14:01:09.014Z,100881.72
2023-04-05T14:03:35.593Z,100888.81
2023-04-05T14:06:02.127Z,100884.59
2023-04-05T14:08:28.626Z,100884.50
2023-04-05T14:10:55.051Z,100885.75
2023-04-05T14:13:21.649Z,100883.06
2023-04-05T14:15:48.164Z,100880.19
2023-04-05T14:18:14.621Z,100879.28
2023-04-05T14:20:41.391Z,100866.66
2023-04-05T14:23:08.127Z,100870.00
2023-04-05T14:25:34.687Z,100868.25
2023-04-05T14:28:01.313Z,100864.75
2023-04-05T14:30:27.727Z,100869.88
2023-04-05T14:32:54.216Z,100871.75
2023-04-05T14:35:20.692Z,100870.97
2023-04-05T14:37:47.123Z,100860.84
2023-04-05T14:40:13.546Z,100863.50
2023-04-05T14:42:48.585Z,100863.47
2023-04-05T14:45:16.727Z,100864.34
2023-04-05T14:47:43.245Z,100868.84
2023-04-05T14:50:09.731Z,100865.66
2023-04-05T14:52:36.320Z,100864.81
2023-04-05T14:55:02.822Z,100867.13
2023-04-05T14:57:29.235Z,100869.78
2023-04-05T14:59:56.032Z,100863.19
2023-04-05T15:02:22.497Z,100863.69
2023-04-05T15:04:48.982Z,100851.50
2023-04-05T15:07:15.547Z,100857.19
2023-04-05T15:09:43.188Z,100854.00
2023-04-05T15:12:09.620Z,100860.72
2023-04-05T15:14:36.247Z,100853.75
2023-04-05T15:17:02.765Z,100853.22
2023-04-05T15:19:30.744Z,100849.47
2023-04-05T15:21:57.280Z,100854.81
2023-04-05T15:24:23.774Z,100842.81
2023-04-05T15:26:50.287Z,100845.69
2023-04-05T15:29:16.732Z,100844.47
2023-04-05T15:31:43.185Z,100846.63
2023-04-05T15:34:09.607Z,100838.66
2023-04-05T15:36:36.377Z,100838.53
2023-04-05T15:39:02.817Z,100837.72
2023-04-05T15:41:29.227Z,100842.34
2023-04-05T15:43:55.721Z,100847.41
2023-04-05T15:46:22.232Z,100845.28
2023-04-05T15:48:48.877Z,100838.75
2023-04-05T15:51:15.517Z,100842.47
2023-04-05T15:53:41.982Z,100838.16
2023-04-05T15:56:08.457Z,100836.53
2023-04-05T15:58:36.889Z,100838.34
2023-04-05T16:01:03.337Z,100841.59
2023-04-05T16:03:29.828Z,100833.59
2023-04-05T16:05:56.369Z,100838.41
2023-04-05T16:08:22.815Z,100836.91
2023-04-05T16:10:49.244Z,100836.84
2023-04-05T16:13:15.990Z,100835.62
2023-04-05T16:15:42.492Z,100838.94
2023-04-05T16:18:10.178Z,100831.00
2023-04-05T16:20:36.638Z,100830.44
2023-04-05T16:23:03.086Z,100826.31
2023-04-05T16:25:29.650Z,100832.41
2023-04-05T16:27:56.234Z,100833.59
2023-04-05T16:30:22.646Z,100816.56
2023-04-05T16:32:49.090Z,100827.50
2023-04-05T16:35:15.928Z,100828.09
2023-04-05T16:37:43.089Z,100841.66
2023-04-05T16:40:10.655Z,100823.87
2023-04-05T16:42:37.749Z,100837.25
2023-04-05T16:45:04.184Z,100842.72
2023-04-05T16:47:30.654Z,100839.41
2023-04-05T16:49:57.137Z,100832.00
2023-04-05T16:52:23.612Z,100835.84
2023-04-05T16:54:50.056Z,100830.31
2023-04-05T16:57:16.491Z,100833.75
2023-04-05T16:59:43.036Z,100831.56
2023-04-05T17:02:09.570Z,100833.87
2023-04-05T17:04:37.685Z,100836.03
2023-04-05T17:07:04.213Z,100837.69
2023-04-05T17:09:30.718Z,100840.44
2023-04-05T17:11:57.174Z,100840.44
2023-04-05T17:14:23.690Z,100832.66
2023-04-05T17:16:50.106Z,100837.37
2023-04-05T17:19:17.120Z,100836.66
2023-04-05T17:21:45.634Z,100845.31
2023-04-05T17:24:12.048Z,100841.22
2023-04-05T17:26:38.516Z,100840.16
2023-04-05T17:29:05.212Z,100846.75
2023-04-05T17:31:33.559Z,100837.59
2023-04-05T17:34:00.208Z,100841.88
2023-04-05T17:36:27.607Z,100853.87
2023-04-05T17:38:54.100Z,100847.03
2023-04-05T17:41:20.515Z,100847.59
2023-04-05T17:43:47.028Z,100847.69
2023-04-05T17:46:15.145Z,100851.69
2023-04-05T17:48:41.678Z,100851.19
2023-04-05T17:51:08.269Z,100856.44
2023-04-05T17:53:34.699Z,100858.91
2023-04-05T17:56:01.285Z,100852.66
2023-04-05T17:58:30.294Z,100857.47
2023-04-05T18:00:57.108Z,100859.44
2023-04-05T18:03:24.094Z,100862.72
2023-04-05T18:05:51.499Z,100869.66
2023-04-05T18:08:17.926Z,100861.19
2023-04-05T18:10:44.380Z,100862.69
2023-04-05T18:13:10.889Z,100871.22
2023-04-05T18:15:37.319Z,100871.84
2023-04-05T18:18:03.782Z,100869.06
2023-04-05T18:20:30.422Z,100880.19
2023-04-05T18:22:57.416Z,100882.38
2023-04-05T18:25:23.941Z,100879.56
2023-04-05T18:27:50.405Z,100886.78
2023-04-05T18:30:16.826Z,100890.16
2023-04-05T18:32:43.334Z,100885.44
2023-04-05T18:35:09.905Z,100884.13
2023-04-05T18:37:36.709Z,100884.81
2023-04-05T18:40:03.155Z,100887.87
2023-04-05T18:42:29.622Z,100892.84
2023-04-05T18:44:56.184Z,100893.53
2023-04-05T18:47:22.669Z,100900.47
2023-04-05T18:49:49.217Z,100903.25
2023-04-05T18:52:17.490Z,100904.16
2023-04-05T18:54:44.004Z,100905.59
2023-04-05T18:57:10.434Z,100899.50
2023-04-05T18:59:36.934Z,100903.50
2023-04-05T19:02:05.225Z,100903.72
2023-04-05T19:04:31.774Z,100910.09
2023-04-05T19:06:58.190Z,100906.84
2023-04-05T19:09:24.689Z,100909.72
2023-04-05T19:11:51.127Z,100911.25
2023-04-05T19:14:17.561Z,100918.31
2023-04-05T19:16:44.017Z,100913.72
2023-04-05T19:19:10.481Z,100923.62
2023-04-05T19:21:36.994Z,100919.88
2023-04-05T19:24:03.445Z,100919.97
2023-04-05T19:26:29.863Z,100921.59
2023-04-05T19:28:56.360Z,100915.06
2023-04-05T19:31:22.926Z,100921.22
2023-04-05T19:33:50.444Z,100929.31
2023-04-05T19:36:17.054Z,100930.00
2023-04-05T19:38:43.563Z,100931.50
2023-04-05T19:41:11.348Z,100931.50
2023-04-05T19:43:39.616Z,100926.16
2023-04-05T19:46:06.537Z,100929.78
2023-04-05T19:48:32.987Z,100926.59
2023-04-05T19:51:22.968Z,100922.91
2023-04-05T19:53:49.656Z,100922.44
2023-04-05T19:56:16.523Z,100929.22
2023-04-05T19:58:43.089Z,100930.59
2023-04-05T20:04:12.457Z,100933.75
2023-04-05T20:06:39.094Z,100930.25
2023-04-05T20:09:05.755Z,100935.78
2023-04-05T20:11:33.148Z,100920.66
2023-04-05T20:14:01.225Z,100924.63
2023-04-05T20:16:27.862Z,100919.78
2023-04-05T20:18:54.466Z,100918.56
2023-04-05T20:21:21.140Z,100927.78
2023-04-05T20:23:47.665Z,100921.66
2023-04-05T20:26:15.170Z,100921.69
2023-04-05T20:28:42.953Z,100916.38
2023-04-05T20:31:09.467Z,100911.97
2023-04-05T20:33:36.304Z,100911.00
2023-04-05T20:36:10.120Z,100918.91
2023-04-05T20:38:36.659Z,100923.06
2023-04-05T20:41:03.134Z,100906.81
2023-04-05T20:43:31.409Z,100924.03
2023-04-05T20:45:58.051Z,100912.88
2023-04-05T20:48:24.476Z,100916.84
2023-04-05T20:50:50.987Z,100904.38
2023-04-05T20:53:17.436Z,100903.56
2023-04-05T20:55:44.205Z,100902.16
2023-04-05T20:58:10.611Z,100905.97
2023-04-05T21:00:37.424Z,100902.34
2023-04-05T21:03:03.985Z,100909.25
2023-04-05T21:05:30.485Z,100901.56
2023-04-05T21:07:57.570Z,100892.50
2023-04-05T21:10:24.135Z,100902.56
2023-04-05T21:12:51.399Z,100900.63
2023-04-05T21:15:19.253Z,100900.88
2023-04-05T21:17:45.881Z,100899.00
2023-04-05T21:20:12.333Z,100906.06
2023-04-05T21:22:38.756Z,100904.28
2023-04-05T21:25:08.206Z,100897.91
2023-04-05T21:27:34.625Z,100902.28
2023-04-05T21:30:01.052Z,100897.87
2023-04-05T21:32:27.513Z,100894.69
2023-04-05T21:34:54.000Z,100896.50
2023-04-05T21:37:20.640Z,100891.72
2023-04-05T21:39:47.071Z,100890.72
2023-04-05T21:42:13.477Z,100897.06
2023-04-05T21:44:39.950Z,100898.47
2023-04-05T21:47:06.533Z,100890.28
2023-04-05T21:49:32.984Z,100890.34
2023-04-05T21:51:59.389Z,100895.13
2023-04-05T21:54:25.900Z,100890.97
2023-04-05T21:56:52.306Z,100892.53
2023-04-05T21:59:18.752Z,100887.28
2023-04-05T22:01:45.249Z,100882.38
2023-04-05T22:04:11.727Z,100878.28
2023-04-05T22:06:38.363Z,100880.16
2023-04-05T22:09:04.782Z,100877.69
2023-04-05T22:11:31.237Z,100881.06
2023-04-05T22:13:57.644Z,100875.25
2023-04-05T22:16:24.094Z,100874.97
2023-04-05T22:18:50.572Z,100874.13
2023-04-05T22:21:17.002Z,100878.09
2023-04-05T22:23:43.444Z,100875.66
2023-04-05T22:26:09.902Z,100873.75
2023-04-05T22:28:36.332Z,100872.41
2023-04-05T22:31:02.736Z,100870.97
2023-04-05T22:33:29.214Z,100870.72
2023-04-05T22:35:55.879Z,100874.06
2023-04-05T22:38:22.379Z,100869.88
2023-04-05T22:40:49.065Z,100877.34
2023-04-05T22:43:15.650Z,100871.56
2023-04-05T22:45:42.115Z,100862.75
2023-04-05T22:48:08.598Z,100864.37
2023-04-05T22:50:35.083Z,100871.59
2023-04-05T22:53:01.499Z,100874.63
2023-04-05T22:55:28.028Z,100865.56
2023-04-05T22:57:54.472Z,100876.56
2023-04-05T23:00:20.893Z,100877.41
2023-04-05T23:02:47.357Z,100875.50
2023-04-05T23:05:13.801Z,100860.66
2023-04-05T23:07:40.406Z,100869.19
2023-04-05T23:10:06.904Z,100863.66
2023-04-05T23:12:33.367Z,100868.06
2023-04-05T23:15:00.013Z,100866.19
2023-04-05T23:17:26.803Z,100870.84
2023-04-05T23:19:53.210Z,100871.69
2023-04-05T23:22:19.681Z,100865.06
2023-04-05T23:24:46.173Z,100860.13
2023-04-05T23:27:12.597Z,100863.16
2023-04-05T23:29:39.036Z,100868.66
2023-04-05T23:32:06.997Z,100866.16
2023-04-05T23:34:33.471Z,100863.16
2023-04-05T23:36:59.911Z,100868.09
2023-04-05T23:39:26.328Z,100861.22
2023-04-05T23:41:52.771Z,100864.53
2023-04-05T23:44:19.186Z,100861.78
2023-04-05T23:46:45.712Z,100863.97
2023-04-05T23:49:12.172Z,100860.66
2023-04-05T23:51:38.634Z,100857.91
2023-04-05T23:54:05.079Z,100852.41
2023-04-05T23:56:31.950Z,100851.00
2023-04-05T23:58:58.461Z,100856.22
